sensor_id;sensor_type;location;lat;lon;timestamp;temperature;humidity
22540;DHT22;11436;50.860;4.334;2022-07-10T00:00:38;17.10;99.90
22540;DHT22;11436;50.860;4.334;2022-07-10T00:03:03;17.10;99.90
22540;DHT22;11436;50.860;4.334;2022-07-10T00:05:30;17.00;99.90
22540;DHT22;11436;50.860;4.334;2022-07-10T00:07:56;17.00;99.90
22540;DHT22;11436;50.860;4.334;2022-07-10T00:10:23;17.10;99.90
22540;DHT22;11436;50.860;4.334;2022-07-10T00:12:50;17.10;99.90
22540;DHT22;11436;50.860;4.334;2022-07-10T00:15:18;16.90;99.90
22540;DHT22;11436;50.860;4.334;2022-07-10T00:17:44;17.00;99.90
22540;DHT22;11436;50.860;4.334;2022-07-10T00:20:11;17.00;99.90
22540;DHT22;11436;50.860;4.334;2022-07-10T00:22:37;17.00;99.90
22540;DHT22;11436;50.860;4.334;2022-07-10T00:25:04;16.90;99.90
22540;DHT22;11436;50.860;4.334;2022-07-10T00:27:30;16.80;99.90
22540;DHT22;11436;50.860;4.334;2022-07-10T00:29:56;16.70;99.90
22540;DHT22;11436;50.860;4.334;2022-07-10T00:32:22;16.80;99.90
22540;DHT22;11436;50.860;4.334;2022-07-10T00:34:48;16.80;99.90
22540;DHT22;11436;50.860;4.334;2022-07-10T00:37:14;16.60;99.90
22540;DHT22;11436;50.860;4.334;2022-07-10T00:39:40;16.50;99.90
22540;DHT22;11436;50.860;4.334;2022-07-10T00:42:10;16.60;99.90
22540;DHT22;11436;50.860;4.334;2022-07-10T00:44:39;16.50;99.90
22540;DHT22;11436;50.860;4.334;2022-07-10T00:47:06;16.50;99.90
22540;DHT22;11436;50.860;4.334;2022-07-10T00:49:33;16.30;99.90
22540;DHT22;11436;50.860;4.334;2022-07-10T00:52:01;16.30;99.90
22540;DHT22;11436;50.860;4.334;2022-07-10T00:54:29;16.30;99.90
22540;DHT22;11436;50.860;4.334;2022-07-10T00:56:56;16.40;99.90
22540;DHT22;11436;50.860;4.334;2022-07-10T00:59:25;16.50;99.90
22540;DHT22;11436;50.860;4.334;2022-07-10T01:01:51;16.50;99.90
22540;DHT22;11436;50.860;4.334;2022-07-10T01:04:17;16.40;99.90
22540;DHT22;11436;50.860;4.334;2022-07-10T01:06:43;16.40;99.90
22540;DHT22;11436;50.860;4.334;2022-07-10T01:09:09;16.50;99.90
22540;DHT22;11436;50.860;4.334;2022-07-10T01:11:36;16.40;99.90
22540;DHT22;11436;50.860;4.334;2022-07-10T01:14:03;16.40;99.90
22540;DHT22;11436;50.860;4.334;2022-07-10T01:16:32;16.40;99.90
22540;DHT22;11436;50.860;4.334;2022-07-10T01:19:04;16.40;99.90
22540;DHT22;11436;50.860;4.334;2022-07-10T01:21:33;16.60;99.90
22540;DHT22;11436;50.860;4.334;2022-07-10T01:24:01;16.70;99.90
22540;DHT22;11436;50.860;4.334;2022-07-10T01:26:28;16.50;99.90
22540;DHT22;11436;50.860;4.334;2022-07-10T01:28:54;16.40;99.90
22540;DHT22;11436;50.860;4.334;2022-07-10T01:31:26;16.30;99.90
22540;DHT22;11436;50.860;4.334;2022-07-10T01:33:52;16.30;99.90
22540;DHT22;11436;50.860;4.334;2022-07-10T01:36:20;16.40;99.90
22540;DHT22;11436;50.860;4.334;2022-07-10T01:38:46;16.30;99.90
22540;DHT22;11436;50.860;4.334;2022-07-10T01:41:12;16.20;99.90
22540;DHT22;11436;50.860;4.334;2022-07-10T01:43:38;16.20;99.90
22540;DHT22;11436;50.860;4.334;2022-07-10T01:46:08;16.30;99.90
22540;DHT22;11436;50.860;4.334;2022-07-10T01:48:37;16.30;99.90
22540;DHT22;11436;50.860;4.334;2022-07-10T01:51:03;16.10;99.90
22540;DHT22;11436;50.860;4.334;2022-07-10T01:53:29;16.10;99.90
22540;DHT22;11436;50.860;4.334;2022-07-10T01:55:55;16.20;99.90
22540;DHT22;11436;50.860;4.334;2022-07-10T01:58:21;16.20;99.90
22540;DHT22;11436;50.860;4.334;2022-07-10T02:00:47;16.20;99.90
22540;DHT22;11436;50.860;4.334;2022-07-10T02:03:13;16.20;99.90
22540;DHT22;11436;50.860;4.334;2022-07-10T02:05:57;16.20;99.90
22540;DHT22;11436;50.860;4.334;2022-07-10T02:08:23;16.10;99.90
22540;DHT22;11436;50.860;4.334;2022-07-10T02:10:49;15.90;99.90
22540;DHT22;11436;50.860;4.334;2022-07-10T02:13:15;15.90;99.90
22540;DHT22;11436;50.860;4.334;2022-07-10T02:15:43;15.90;99.90
22540;DHT22;11436;50.860;4.334;2022-07-10T02:18:09;16.00;99.90
22540;DHT22;11436;50.860;4.334;2022-07-10T02:20:35;16.00;99.90
22540;DHT22;11436;50.860;4.334;2022-07-10T02:23:02;16.00;99.90
22540;DHT22;11436;50.860;4.334;2022-07-10T02:25:28;16.00;99.90
22540;DHT22;11436;50.860;4.334;2022-07-10T02:27:53;15.90;99.90
22540;DHT22;11436;50.860;4.334;2022-07-10T02:30:19;16.00;99.90
22540;DHT22;11436;50.860;4.334;2022-07-10T02:32:45;16.00;99.90
22540;DHT22;11436;50.860;4.334;2022-07-10T02:35:11;15.80;99.90
22540;DHT22;11436;50.860;4.334;2022-07-10T02:37:37;15.80;99.90
22540;DHT22;11436;50.860;4.334;2022-07-10T02:40:03;15.70;99.90
22540;DHT22;11436;50.860;4.334;2022-07-10T02:42:28;15.70;99.90
22540;DHT22;11436;50.860;4.334;2022-07-10T02:44:55;15.80;99.90
22540;DHT22;11436;50.860;4.334;2022-07-10T02:47:21;15.80;99.90
22540;DHT22;11436;50.860;4.334;2022-07-10T02:49:47;15.80;99.90
22540;DHT22;11436;50.860;4.334;2022-07-10T02:52:12;15.80;99.90
22540;DHT22;11436;50.860;4.334;2022-07-10T02:54:38;15.70;99.90
22540;DHT22;11436;50.860;4.334;2022-07-10T02:57:04;15.70;99.90
22540;DHT22;11436;50.860;4.334;2022-07-10T02:59:30;15.60;99.90
22540;DHT22;11436;50.860;4.334;2022-07-10T03:01:56;15.70;99.90
22540;DHT22;11436;50.860;4.334;2022-07-10T03:04:21;15.60;99.90
22540;DHT22;11436;50.860;4.334;2022-07-10T03:06:47;15.60;99.90
22540;DHT22;11436;50.860;4.334;2022-07-10T03:09:13;15.60;99.90
22540;DHT22;11436;50.860;4.334;2022-07-10T03:11:39;15.60;99.90
22540;DHT22;11436;50.860;4.334;2022-07-10T03:14:04;15.60;99.90
22540;DHT22;11436;50.860;4.334;2022-07-10T03:16:31;15.70;99.90
22540;DHT22;11436;50.860;4.334;2022-07-10T03:18:57;15.70;99.90
22540;DHT22;11436;50.860;4.334;2022-07-10T03:21:23;15.70;99.90
22540;DHT22;11436;50.860;4.334;2022-07-10T03:23:49;16.00;99.90
22540;DHT22;11436;50.860;4.334;2022-07-10T03:26:15;16.00;99.90
22540;DHT22;11436;50.860;4.334;2022-07-10T03:28:41;15.90;99.90
22540;DHT22;11436;50.860;4.334;2022-07-10T03:31:06;15.90;99.90
22540;DHT22;11436;50.860;4.334;2022-07-10T03:33:32;15.80;99.90
22540;DHT22;11436;50.860;4.334;2022-07-10T03:35:59;15.70;99.90
22540;DHT22;11436;50.860;4.334;2022-07-10T03:38:27;15.70;99.90
22540;DHT22;11436;50.860;4.334;2022-07-10T03:40:53;15.60;99.90
22540;DHT22;11436;50.860;4.334;2022-07-10T03:43:20;15.70;99.90
22540;DHT22;11436;50.860;4.334;2022-07-10T03:45:45;15.80;99.90
22540;DHT22;11436;50.860;4.334;2022-07-10T03:48:11;15.90;99.90
22540;DHT22;11436;50.860;4.334;2022-07-10T03:50:37;15.80;99.90
22540;DHT22;11436;50.860;4.334;2022-07-10T03:53:03;15.60;99.90
22540;DHT22;11436;50.860;4.334;2022-07-10T03:55:28;15.50;99.90
22540;DHT22;11436;50.860;4.334;2022-07-10T03:57:54;15.40;99.90
22540;DHT22;11436;50.860;4.334;2022-07-10T04:00:26;15.40;99.90
22540;DHT22;11436;50.860;4.334;2022-07-10T04:02:59;15.50;99.90
22540;DHT22;11436;50.860;4.334;2022-07-10T04:05:26;15.60;99.90
22540;DHT22;11436;50.860;4.334;2022-07-10T04:07:52;15.80;99.90
22540;DHT22;11436;50.860;4.334;2022-07-10T04:10:19;15.60;99.90
22540;DHT22;11436;50.860;4.334;2022-07-10T04:12:44;15.70;99.90
22540;DHT22;11436;50.860;4.334;2022-07-10T04:15:11;15.80;99.90
22540;DHT22;11436;50.860;4.334;2022-07-10T04:17:38;15.70;99.90
22540;DHT22;11436;50.860;4.334;2022-07-10T04:20:04;15.60;99.90
22540;DHT22;11436;50.860;4.334;2022-07-10T04:22:30;15.80;99.90
22540;DHT22;11436;50.860;4.334;2022-07-10T04:24:55;16.00;99.90
22540;DHT22;11436;50.860;4.334;2022-07-10T04:27:21;15.90;99.90
22540;DHT22;11436;50.860;4.334;2022-07-10T04:29:48;15.70;99.90
22540;DHT22;11436;50.860;4.334;2022-07-10T04:32:15;15.60;99.90
22540;DHT22;11436;50.860;4.334;2022-07-10T04:34:41;15.50;99.90
22540;DHT22;11436;50.860;4.334;2022-07-10T04:37:06;15.50;99.90
22540;DHT22;11436;50.860;4.334;2022-07-10T04:39:38;15.50;99.90
22540;DHT22;11436;50.860;4.334;2022-07-10T04:42:05;15.60;99.90
22540;DHT22;11436;50.860;4.334;2022-07-10T04:44:31;15.60;99.90
22540;DHT22;11436;50.860;4.334;2022-07-10T04:46:57;15.60;99.90
22540;DHT22;11436;50.860;4.334;2022-07-10T04:49:23;15.50;99.90
22540;DHT22;11436;50.860;4.334;2022-07-10T04:51:49;15.60;99.90
22540;DHT22;11436;50.860;4.334;2022-07-10T04:54:15;15.60;99.90
22540;DHT22;11436;50.860;4.334;2022-07-10T04:56:41;15.70;99.90
22540;DHT22;11436;50.860;4.334;2022-07-10T04:59:06;15.70;99.90
22540;DHT22;11436;50.860;4.334;2022-07-10T05:01:33;15.70;99.90
22540;DHT22;11436;50.860;4.334;2022-07-10T05:03:58;15.70;99.90
22540;DHT22;11436;50.860;4.334;2022-07-10T05:06:24;15.70;99.90
22540;DHT22;11436;50.860;4.334;2022-07-10T05:08:50;15.80;99.90
22540;DHT22;11436;50.860;4.334;2022-07-10T05:11:16;15.80;99.90
22540;DHT22;11436;50.860;4.334;2022-07-10T05:13:42;15.80;99.90
22540;DHT22;11436;50.860;4.334;2022-07-10T05:16:11;15.90;99.90
22540;DHT22;11436;50.860;4.334;2022-07-10T05:18:39;15.90;99.90
22540;DHT22;11436;50.860;4.334;2022-07-10T05:21:05;16.00;99.90
22540;DHT22;11436;50.860;4.334;2022-07-10T05:23:31;16.10;99.90
22540;DHT22;11436;50.860;4.334;2022-07-10T05:25:57;16.30;99.90
22540;DHT22;11436;50.860;4.334;2022-07-10T05:28:22;16.50;99.90
22540;DHT22;11436;50.860;4.334;2022-07-10T05:30:48;16.40;99.90
22540;DHT22;11436;50.860;4.334;2022-07-10T05:33:15;16.20;99.90
22540;DHT22;11436;50.860;4.334;2022-07-10T05:35:40;16.20;99.90
22540;DHT22;11436;50.860;4.334;2022-07-10T05:38:06;16.10;99.90
22540;DHT22;11436;50.860;4.334;2022-07-10T05:40:32;16.00;99.90
22540;DHT22;11436;50.860;4.334;2022-07-10T05:42:58;16.10;99.90
22540;DHT22;11436;50.860;4.334;2022-07-10T05:45:23;16.40;99.90
22540;DHT22;11436;50.860;4.334;2022-07-10T05:47:50;16.50;99.90
22540;DHT22;11436;50.860;4.334;2022-07-10T05:50:15;16.60;99.90
22540;DHT22;11436;50.860;4.334;2022-07-10T05:52:41;16.60;99.90
22540;DHT22;11436;50.860;4.334;2022-07-10T05:55:07;17.00;99.90
22540;DHT22;11436;50.860;4.334;2022-07-10T05:57:33;17.40;99.90
22540;DHT22;11436;50.860;4.334;2022-07-10T05:59:59;17.30;99.90
22540;DHT22;11436;50.860;4.334;2022-07-10T06:02:26;17.10;99.90
22540;DHT22;11436;50.860;4.334;2022-07-10T06:04:51;16.90;99.90
22540;DHT22;11436;50.860;4.334;2022-07-10T06:07:17;16.70;99.90
22540;DHT22;11436;50.860;4.334;2022-07-10T06:09:43;16.60;99.90
22540;DHT22;11436;50.860;4.334;2022-07-10T06:12:09;16.50;99.90
22540;DHT22;11436;50.860;4.334;2022-07-10T06:14:35;16.50;99.90
22540;DHT22;11436;50.860;4.334;2022-07-10T06:17:01;16.80;99.90
22540;DHT22;11436;50.860;4.334;2022-07-10T06:19:27;16.80;99.90
22540;DHT22;11436;50.860;4.334;2022-07-10T06:21:53;16.90;99.90
22540;DHT22;11436;50.860;4.334;2022-07-10T06:24:37;16.70;99.90
22540;DHT22;11436;50.860;4.334;2022-07-10T06:27:03;16.80;99.90
22540;DHT22;11436;50.860;4.334;2022-07-10T06:29:29;17.20;99.90
22540;DHT22;11436;50.860;4.334;2022-07-10T06:31:55;17.60;99.90
22540;DHT22;11436;50.860;4.334;2022-07-10T06:34:21;17.70;99.90
22540;DHT22;11436;50.860;4.334;2022-07-10T06:36:46;17.90;99.90
22540;DHT22;11436;50.860;4.334;2022-07-10T06:39:12;18.00;99.90
22540;DHT22;11436;50.860;4.334;2022-07-10T06:41:38;18.10;99.90
22540;DHT22;11436;50.860;4.334;2022-07-10T06:44:04;18.20;99.90
22540;DHT22;11436;50.860;4.334;2022-07-10T06:46:31;18.10;99.90
22540;DHT22;11436;50.860;4.334;2022-07-10T06:48:59;18.20;99.90
22540;DHT22;11436;50.860;4.334;2022-07-10T06:51:25;18.10;99.90
22540;DHT22;11436;50.860;4.334;2022-07-10T06:53:51;17.80;99.90
22540;DHT22;11436;50.860;4.334;2022-07-10T06:56:17;17.90;99.90
22540;DHT22;11436;50.860;4.334;2022-07-10T06:58:43;17.70;99.90
22540;DHT22;11436;50.860;4.334;2022-07-10T07:01:09;17.50;99.90
22540;DHT22;11436;50.860;4.334;2022-07-10T07:03:35;17.60;99.90
22540;DHT22;11436;50.860;4.334;2022-07-10T07:06:00;17.90;99.90
22540;DHT22;11436;50.860;4.334;2022-07-10T07:08:29;18.30;99.90
22540;DHT22;11436;50.860;4.334;2022-07-10T07:10:55;18.30;99.90
22540;DHT22;11436;50.860;4.334;2022-07-10T07:13:21;18.40;99.90
22540;DHT22;11436;50.860;4.334;2022-07-10T07:15:48;18.30;99.90
22540;DHT22;11436;50.860;4.334;2022-07-10T07:18:23;18.10;99.90
22540;DHT22;11436;50.860;4.334;2022-07-10T07:20:58;18.00;99.90
22540;DHT22;11436;50.860;4.334;2022-07-10T07:23:41;18.00;99.90
22540;DHT22;11436;50.860;4.334;2022-07-10T07:26:07;18.00;99.90
22540;DHT22;11436;50.860;4.334;2022-07-10T07:28:33;18.40;99.90
22540;DHT22;11436;50.860;4.334;2022-07-10T07:30:59;18.80;99.90
22540;DHT22;11436;50.860;4.334;2022-07-10T07:33:25;18.80;99.90
22540;DHT22;11436;50.860;4.334;2022-07-10T07:35:51;18.70;99.90
22540;DHT22;11436;50.860;4.334;2022-07-10T07:38:16;18.70;99.90
22540;DHT22;11436;50.860;4.334;2022-07-10T07:40:43;18.40;99.90
22540;DHT22;11436;50.860;4.334;2022-07-10T07:43:08;18.20;99.90
22540;DHT22;11436;50.860;4.334;2022-07-10T07:45:34;18.40;99.90
22540;DHT22;11436;50.860;4.334;2022-07-10T07:48:01;18.70;99.90
22540;DHT22;11436;50.860;4.334;2022-07-10T07:50:35;18.60;99.90
22540;DHT22;11436;50.860;4.334;2022-07-10T07:53:02;18.10;99.90
22540;DHT22;11436;50.860;4.334;2022-07-10T07:55:31;18.10;99.90
22540;DHT22;11436;50.860;4.334;2022-07-10T07:57:57;18.00;99.90
22540;DHT22;11436;50.860;4.334;2022-07-10T08:00:24;18.00;99.90
22540;DHT22;11436;50.860;4.334;2022-07-10T08:02:51;18.20;99.90
22540;DHT22;11436;50.860;4.334;2022-07-10T08:05:17;18.50;99.90
22540;DHT22;11436;50.860;4.334;2022-07-10T08:07:46;18.80;99.90
22540;DHT22;11436;50.860;4.334;2022-07-10T08:10:15;19.30;99.90
22540;DHT22;11436;50.860;4.334;2022-07-10T08:12:42;19.20;99.90
22540;DHT22;11436;50.860;4.334;2022-07-10T08:15:09;19.30;99.90
22540;DHT22;11436;50.860;4.334;2022-07-10T08:17:36;19.50;99.90
22540;DHT22;11436;50.860;4.334;2022-07-10T08:20:03;19.30;99.90
22540;DHT22;11436;50.860;4.334;2022-07-10T08:22:28;19.60;99.90
22540;DHT22;11436;50.860;4.334;2022-07-10T08:24:54;19.80;99.90
22540;DHT22;11436;50.860;4.334;2022-07-10T08:27:22;19.90;99.90
22540;DHT22;11436;50.860;4.334;2022-07-10T08:29:47;20.20;99.90
22540;DHT22;11436;50.860;4.334;2022-07-10T08:32:13;19.90;99.90
22540;DHT22;11436;50.860;4.334;2022-07-10T08:34:39;19.80;99.90
22540;DHT22;11436;50.860;4.334;2022-07-10T08:37:04;19.60;99.90
22540;DHT22;11436;50.860;4.334;2022-07-10T08:39:30;19.80;99.90
22540;DHT22;11436;50.860;4.334;2022-07-10T08:41:57;20.00;99.90
22540;DHT22;11436;50.860;4.334;2022-07-10T08:44:23;20.10;99.90
22540;DHT22;11436;50.860;4.334;2022-07-10T08:46:49;19.90;99.90
22540;DHT22;11436;50.860;4.334;2022-07-10T08:49:16;20.00;99.90
22540;DHT22;11436;50.860;4.334;2022-07-10T08:52:03;20.10;99.90
22540;DHT22;11436;50.860;4.334;2022-07-10T08:54:29;20.40;99.90
22540;DHT22;11436;50.860;4.334;2022-07-10T08:57:02;20.10;99.90
22540;DHT22;11436;50.860;4.334;2022-07-10T08:59:29;20.10;99.90
22540;DHT22;11436;50.860;4.334;2022-07-10T09:01:55;20.20;99.90
22540;DHT22;11436;50.860;4.334;2022-07-10T09:04:23;20.60;99.90
22540;DHT22;11436;50.860;4.334;2022-07-10T09:06:52;20.70;99.90
22540;DHT22;11436;50.860;4.334;2022-07-10T09:09:18;20.90;99.90
22540;DHT22;11436;50.860;4.334;2022-07-10T09:11:44;20.80;99.90
22540;DHT22;11436;50.860;4.334;2022-07-10T09:14:11;20.90;99.90
22540;DHT22;11436;50.860;4.334;2022-07-10T09:16:42;21.30;99.90
22540;DHT22;11436;50.860;4.334;2022-07-10T09:19:24;21.30;99.90
22540;DHT22;11436;50.860;4.334;2022-07-10T09:21:54;21.10;99.90
22540;DHT22;11436;50.860;4.334;2022-07-10T09:24:21;21.10;99.90
22540;DHT22;11436;50.860;4.334;2022-07-10T09:27:01;21.20;99.90
22540;DHT22;11436;50.860;4.334;2022-07-10T09:29:32;21.00;99.90
22540;DHT22;11436;50.860;4.334;2022-07-10T09:31:59;21.10;99.90
22540;DHT22;11436;50.860;4.334;2022-07-10T09:37:28;20.90;99.90
22540;DHT22;11436;50.860;4.334;2022-07-10T09:42:33;20.90;99.90
22540;DHT22;11436;50.860;4.334;2022-07-10T09:47:54;21.40;99.90
22540;DHT22;11436;50.860;4.334;2022-07-10T09:50:36;21.50;99.90
22540;DHT22;11436;50.860;4.334;2022-07-10T09:53:07;21.80;99.90
22540;DHT22;11436;50.860;4.334;2022-07-10T09:55:35;21.90;99.90
22540;DHT22;11436;50.860;4.334;2022-07-10T09:58:03;21.80;99.90
22540;DHT22;11436;50.860;4.334;2022-07-10T10:00:35;21.70;99.90
22540;DHT22;11436;50.860;4.334;2022-07-10T10:03:05;22.30;99.90
22540;DHT22;11436;50.860;4.334;2022-07-10T10:05:39;22.40;99.90
22540;DHT22;11436;50.860;4.334;2022-07-10T10:08:19;22.20;99.90
22540;DHT22;11436;50.860;4.334;2022-07-10T10:10:49;22.30;99.90
22540;DHT22;11436;50.860;4.334;2022-07-10T10:13:27;22.40;99.90
22540;DHT22;11436;50.860;4.334;2022-07-10T10:15:54;22.60;99.90
22540;DHT22;11436;50.860;4.334;2022-07-10T10:18:25;22.50;99.90
22540;DHT22;11436;50.860;4.334;2022-07-10T10:20:53;22.30;99.90
22540;DHT22;11436;50.860;4.334;2022-07-10T10:23:21;21.70;99.90
22540;DHT22;11436;50.860;4.334;2022-07-10T10:25:51;21.50;99.90
22540;DHT22;11436;50.860;4.334;2022-07-10T10:28:18;21.70;99.90
22540;DHT22;11436;50.860;4.334;2022-07-10T10:30:49;21.80;99.90
22540;DHT22;11436;50.860;4.334;2022-07-10T10:36:04;21.90;99.90
22540;DHT22;11436;50.860;4.334;2022-07-10T10:44:23;22.00;99.90
22540;DHT22;11436;50.860;4.334;2022-07-10T10:49:19;22.10;99.90
22540;DHT22;11436;50.860;4.334;2022-07-10T10:51:58;22.30;99.90
22540;DHT22;11436;50.860;4.334;2022-07-10T10:54:29;21.80;99.90
22540;DHT22;11436;50.860;4.334;2022-07-10T10:57:15;21.90;99.90
22540;DHT22;11436;50.860;4.334;2022-07-10T11:02:30;22.30;99.90
22540;DHT22;11436;50.860;4.334;2022-07-10T11:07:56;21.90;99.90
22540;DHT22;11436;50.860;4.334;2022-07-10T11:15:43;21.90;99.90
22540;DHT22;11436;50.860;4.334;2022-07-10T11:18:19;22.40;99.90
22540;DHT22;11436;50.860;4.334;2022-07-10T11:20:52;22.40;99.90
22540;DHT22;11436;50.860;4.334;2022-07-10T11:26:11;22.60;99.90
22540;DHT22;11436;50.860;4.334;2022-07-10T11:31:17;22.70;99.90
22540;DHT22;11436;50.860;4.334;2022-07-10T11:33:45;22.70;99.90
22540;DHT22;11436;50.860;4.334;2022-07-10T11:36:16;22.90;99.90
22540;DHT22;11436;50.860;4.334;2022-07-10T11:38:43;23.20;99.90
22540;DHT22;11436;50.860;4.334;2022-07-10T11:41:19;23.80;99.90
22540;DHT22;11436;50.860;4.334;2022-07-10T11:43:55;23.30;99.90
22540;DHT22;11436;50.860;4.334;2022-07-10T11:46:29;23.30;99.90
22540;DHT22;11436;50.860;4.334;2022-07-10T11:48:55;23.50;99.90
22540;DHT22;11436;50.860;4.334;2022-07-10T11:51:25;23.40;99.90
22540;DHT22;11436;50.860;4.334;2022-07-10T11:53:57;23.10;99.90
22540;DHT22;11436;50.860;4.334;2022-07-10T11:56:25;23.90;99.90
22540;DHT22;11436;50.860;4.334;2022-07-10T11:59:05;24.00;99.90
22540;DHT22;11436;50.860;4.334;2022-07-10T12:01:35;24.80;99.90
22540;DHT22;11436;50.860;4.334;2022-07-10T12:04:07;25.10;99.90
22540;DHT22;11436;50.860;4.334;2022-07-10T12:06:35;25.10;99.90
22540;DHT22;11436;50.860;4.334;2022-07-10T12:09:07;24.90;99.90
22540;DHT22;11436;50.860;4.334;2022-07-10T12:11:35;24.10;99.90
22540;DHT22;11436;50.860;4.334;2022-07-10T12:16:38;24.60;99.90
22540;DHT22;11436;50.860;4.334;2022-07-10T12:19:06;25.10;99.90
22540;DHT22;11436;50.860;4.334;2022-07-10T12:21:32;24.80;99.90
22540;DHT22;11436;50.860;4.334;2022-07-10T12:23:59;24.60;99.90
22540;DHT22;11436;50.860;4.334;2022-07-10T12:26:34;24.20;99.90
22540;DHT22;11436;50.860;4.334;2022-07-10T12:29:01;24.10;99.90
22540;DHT22;11436;50.860;4.334;2022-07-10T12:31:29;24.80;99.90
22540;DHT22;11436;50.860;4.334;2022-07-10T12:34:02;25.80;99.90
22540;DHT22;11436;50.860;4.334;2022-07-10T12:36:48;26.60;99.90
22540;DHT22;11436;50.860;4.334;2022-07-10T12:39:25;26.60;99.90
22540;DHT22;11436;50.860;4.334;2022-07-10T12:44:53;27.20;99.90
22540;DHT22;11436;50.860;4.334;2022-07-10T12:47:20;27.70;99.90
22540;DHT22;11436;50.860;4.334;2022-07-10T12:50:03;27.80;99.90
22540;DHT22;11436;50.860;4.334;2022-07-10T12:52:34;27.00;99.90
22540;DHT22;11436;50.860;4.334;2022-07-10T12:55:14;26.90;99.90
22540;DHT22;11436;50.860;4.334;2022-07-10T13:00:20;27.50;99.90
22540;DHT22;11436;50.860;4.334;2022-07-10T13:02:47;26.70;99.90
22540;DHT22;11436;50.860;4.334;2022-07-10T13:05:31;26.40;99.90
22540;DHT22;11436;50.860;4.334;2022-07-10T13:08:27;26.00;99.90
22540;DHT22;11436;50.860;4.334;2022-07-10T13:10:58;25.90;99.90
22540;DHT22;11436;50.860;4.334;2022-07-10T13:13:24;25.20;99.90
22540;DHT22;11436;50.860;4.334;2022-07-10T13:15:50;26.40;99.90
22540;DHT22;11436;50.860;4.334;2022-07-10T13:18:23;26.90;99.90
22540;DHT22;11436;50.860;4.334;2022-07-10T13:20:51;26.60;99.90
22540;DHT22;11436;50.860;4.334;2022-07-10T13:23:18;26.10;99.90
22540;DHT22;11436;50.860;4.334;2022-07-10T13:25:48;25.90;99.90
22540;DHT22;11436;50.860;4.334;2022-07-10T13:28:14;25.90;99.90
22540;DHT22;11436;50.860;4.334;2022-07-10T13:30:42;26.10;99.90
22540;DHT22;11436;50.860;4.334;2022-07-10T13:33:08;26.50;99.90
22540;DHT22;11436;50.860;4.334;2022-07-10T13:35:35;26.90;99.90
22540;DHT22;11436;50.860;4.334;2022-07-10T13:38:03;27.20;99.90
22540;DHT22;11436;50.860;4.334;2022-07-10T13:40:33;28.20;99.90
22540;DHT22;11436;50.860;4.334;2022-07-10T13:42:59;29.10;99.90
22540;DHT22;11436;50.860;4.334;2022-07-10T13:45:25;29.10;99.90
22540;DHT22;11436;50.860;4.334;2022-07-10T13:47:56;29.40;99.90
22540;DHT22;11436;50.860;4.334;2022-07-10T13:50:22;29.00;99.90
22540;DHT22;11436;50.860;4.334;2022-07-10T13:52:50;27.80;99.90
22540;DHT22;11436;50.860;4.334;2022-07-10T13:55:16;26.60;99.90
22540;DHT22;11436;50.860;4.334;2022-07-10T13:57:42;26.10;99.90
22540;DHT22;11436;50.860;4.334;2022-07-10T14:00:09;26.20;99.90
22540;DHT22;11436;50.860;4.334;2022-07-10T14:02:35;26.90;99.90
22540;DHT22;11436;50.860;4.334;2022-07-10T14:05:01;28.50;99.90
22540;DHT22;11436;50.860;4.334;2022-07-10T14:07:28;28.10;99.90
22540;DHT22;11436;50.860;4.334;2022-07-10T14:09:54;27.80;99.90
22540;DHT22;11436;50.860;4.334;2022-07-10T14:12:20;28.20;99.90
22540;DHT22;11436;50.860;4.334;2022-07-10T14:14:46;28.90;99.90
22540;DHT22;11436;50.860;4.334;2022-07-10T14:17:12;29.10;99.90
22540;DHT22;11436;50.860;4.334;2022-07-10T14:19:38;28.00;99.90
22540;DHT22;11436;50.860;4.334;2022-07-10T14:22:04;27.90;99.90
22540;DHT22;11436;50.860;4.334;2022-07-10T14:24:29;29.00;99.90
22540;DHT22;11436;50.860;4.334;2022-07-10T14:26:56;29.00;99.90
22540;DHT22;11436;50.860;4.334;2022-07-10T14:29:22;29.20;99.90
22540;DHT22;11436;50.860;4.334;2022-07-10T14:31:48;28.30;99.90
22540;DHT22;11436;50.860;4.334;2022-07-10T14:34:18;27.50;99.90
22540;DHT22;11436;50.860;4.334;2022-07-10T14:36:44;26.90;99.90
22540;DHT22;11436;50.860;4.334;2022-07-10T14:39:10;26.70;99.90
22540;DHT22;11436;50.860;4.334;2022-07-10T14:41:37;27.20;99.90
22540;DHT22;11436;50.860;4.334;2022-07-10T14:44:04;27.80;99.90
22540;DHT22;11436;50.860;4.334;2022-07-10T14:46:30;29.20;99.90
22540;DHT22;11436;50.860;4.334;2022-07-10T14:48:56;30.50;99.90
22540;DHT22;11436;50.860;4.334;2022-07-10T14:51:21;30.50;99.90
22540;DHT22;11436;50.860;4.334;2022-07-10T14:53:47;29.60;99.90
22540;DHT22;11436;50.860;4.334;2022-07-10T14:56:13;29.60;99.90
22540;DHT22;11436;50.860;4.334;2022-07-10T14:58:42;29.40;99.90
22540;DHT22;11436;50.860;4.334;2022-07-10T15:01:08;29.50;99.90
22540;DHT22;11436;50.860;4.334;2022-07-10T15:03:34;29.80;99.90
22540;DHT22;11436;50.860;4.334;2022-07-10T15:05:59;29.70;99.90
22540;DHT22;11436;50.860;4.334;2022-07-10T15:08:25;29.10;99.90
22540;DHT22;11436;50.860;4.334;2022-07-10T15:10:52;30.10;99.90
22540;DHT22;11436;50.860;4.334;2022-07-10T15:13:18;31.30;99.90
22540;DHT22;11436;50.860;4.334;2022-07-10T15:15:44;32.40;99.90
22540;DHT22;11436;50.860;4.334;2022-07-10T15:18:10;31.90;99.90
22540;DHT22;11436;50.860;4.334;2022-07-10T15:20:36;31.40;99.90
22540;DHT22;11436;50.860;4.334;2022-07-10T15:23:03;31.10;99.90
22540;DHT22;11436;50.860;4.334;2022-07-10T15:25:29;31.10;99.90
22540;DHT22;11436;50.860;4.334;2022-07-10T15:27:55;32.40;99.90
22540;DHT22;11436;50.860;4.334;2022-07-10T15:30:21;31.60;99.90
22540;DHT22;11436;50.860;4.334;2022-07-10T15:32:47;32.80;99.90
22540;DHT22;11436;50.860;4.334;2022-07-10T15:35:13;34.50;99.90
22540;DHT22;11436;50.860;4.334;2022-07-10T15:37:39;33.70;99.90
22540;DHT22;11436;50.860;4.334;2022-07-10T15:40:05;32.90;99.90
22540;DHT22;11436;50.860;4.334;2022-07-10T15:42:31;32.50;99.90
22540;DHT22;11436;50.860;4.334;2022-07-10T15:44:57;31.00;99.90
22540;DHT22;11436;50.860;4.334;2022-07-10T15:47:24;29.90;99.90
22540;DHT22;11436;50.860;4.334;2022-07-10T15:49:50;29.20;99.90
22540;DHT22;11436;50.860;4.334;2022-07-10T15:52:16;29.00;99.90
22540;DHT22;11436;50.860;4.334;2022-07-10T15:54:43;28.60;99.90
22540;DHT22;11436;50.860;4.334;2022-07-10T15:57:10;28.50;99.90
22540;DHT22;11436;50.860;4.334;2022-07-10T15:59:37;28.30;99.90
22540;DHT22;11436;50.860;4.334;2022-07-10T16:02:04;28.90;99.90
22540;DHT22;11436;50.860;4.334;2022-07-10T16:04:30;29.40;99.90
22540;DHT22;11436;50.860;4.334;2022-07-10T16:06:56;29.40;99.90
22540;DHT22;11436;50.860;4.334;2022-07-10T16:09:22;29.30;99.90
22540;DHT22;11436;50.860;4.334;2022-07-10T16:11:47;29.40;99.90
22540;DHT22;11436;50.860;4.334;2022-07-10T16:14:13;29.90;99.90
22540;DHT22;11436;50.860;4.334;2022-07-10T16:16:39;30.50;99.90